sensor_id;sensor_type;location;lat;lon;timestamp;pressure;altitude;pressure_sealevel;temperature;humidity
71565;BME280;59397;50.952;14.502;2023-09-18T00:12:42;970.85;;;11.21;100.00
71565;BME280;59397;50.952;14.502;2023-09-18T00:32:17;970.70;;;11.69;100.00
71565;BME280;59397;50.952;14.502;2023-09-18T00:51:49;970.58;;;11.79;100.00
71565;BME280;59397;50.952;14.502;2023-09-18T01:11:23;970.44;;;11.12;100.00
71565;BME280;59397;50.952;14.502;2023-09-18T01:30:55;970.20;;;11.65;100.00
71565;BME280;59397;50.952;14.502;2023-09-18T01:50:27;970.06;;;11.27;100.00
71565;BME280;59397;50.952;14.502;2023-09-18T02:10:02;969.80;;;11.01;100.00
71565;BME280;59397;50.952;14.502;2023-09-18T02:29:35;969.65;;;11.50;100.00
71565;BME280;59397;50.952;14.502;2023-09-18T02:49:08;969.38;;;11.06;100.00
71565;BME280;59397;50.952;14.502;2023-09-18T03:08:44;969.21;;;11.41;100.00
71565;BME280;59397;50.952;14.502;2023-09-18T03:28:18;968.97;;;11.07;100.00
71565;BME280;59397;50.952;14.502;2023-09-18T03:47:54;968.84;;;11.86;100.00
71565;BME280;59397;50.952;14.502;2023-09-18T04:07:27;968.57;;;11.38;100.00
71565;BME280;59397;50.952;14.502;2023-09-18T04:27:03;968.38;;;11.40;100.00
71565;BME280;59397;50.952;14.502;2023-09-18T04:46:39;968.36;;;11.80;100.00
71565;BME280;59397;50.952;14.502;2023-09-18T05:06:22;968.33;;;15.84;100.00
71565;BME280;59397;50.952;14.502;2023-09-18T05:25:59;968.27;;;16.44;100.00
71565;BME280;59397;50.952;14.502;2023-09-18T05:45:34;968.13;;;16.54;100.00
71565;BME280;59397;50.952;14.502;2023-09-18T06:05:08;967.99;;;16.71;100.00
71565;BME280;59397;50.952;14.502;2023-09-18T06:24:48;967.61;;;18.06;100.00
71565;BME280;59397;50.952;14.502;2023-09-18T06:44:25;967.55;;;18.72;100.00
71565;BME280;59397;50.952;14.502;2023-09-18T07:04:00;967.43;;;19.16;99.08
71565;BME280;59397;50.952;14.502;2023-09-18T07:23:39;967.31;;;19.52;95.56
71565;BME280;59397;50.952;14.502;2023-09-18T07:43:14;967.13;;;20.02;90.09
71565;BME280;59397;50.952;14.502;2023-09-18T08:02:50;967.02;;;20.38;88.28
71565;BME280;59397;50.952;14.502;2023-09-18T08:22:27;967.05;;;20.93;85.35
71565;BME280;59397;50.952;14.502;2023-09-18T08:42:04;966.97;;;20.88;83.29
71565;BME280;59397;50.952;14.502;2023-09-18T09:01:41;966.78;;;21.75;79.41
71565;BME280;59397;50.952;14.502;2023-09-18T09:21:16;966.43;;;21.98;77.78
71565;BME280;59397;50.952;14.502;2023-09-18T09:40:53;966.03;;;22.55;76.66
71565;BME280;59397;50.952;14.502;2023-09-18T10:00:32;965.93;;;22.80;73.30
71565;BME280;59397;50.952;14.502;2023-09-18T10:20:07;965.77;;;23.18;75.92
71565;BME280;59397;50.952;14.502;2023-09-18T10:39:40;965.90;;;22.69;74.84
71565;BME280;59397;50.952;14.502;2023-09-18T10:59:16;965.81;;;23.34;72.07
71565;BME280;59397;50.952;14.502;2023-09-18T11:18:54;965.61;;;24.29;69.98
71565;BME280;59397;50.952;14.502;2023-09-18T11:38:28;965.63;;;24.40;69.29
71565;BME280;59397;50.952;14.502;2023-09-18T11:58:02;965.74;;;24.13;69.72
71565;BME280;59397;50.952;14.502;2023-09-18T12:17:36;965.63;;;24.57;71.32
71565;BME280;59397;50.952;14.502;2023-09-18T12:37:09;965.43;;;23.61;75.63
71565;BME280;59397;50.952;14.502;2023-09-18T12:56:46;965.29;;;24.54;73.58
71565;BME280;59397;50.952;14.502;2023-09-18T13:16:21;965.31;;;24.64;70.89
71565;BME280;59397;50.952;14.502;2023-09-18T13:35:55;965.42;;;23.91;73.18
71565;BME280;59397;50.952;14.502;2023-09-18T13:55:29;965.18;;;24.46;76.58
71565;BME280;59397;50.952;14.502;2023-09-18T14:15:06;965.11;;;24.25;76.93
71565;BME280;59397;50.952;14.502;2023-09-18T14:34:41;965.07;;;24.43;76.66
71565;BME280;59397;50.952;14.502;2023-09-18T14:54:14;965.02;;;23.92;74.94
71565;BME280;59397;50.952;14.502;2023-09-18T15:13:49;965.10;;;23.96;73.30
71565;BME280;59397;50.952;14.502;2023-09-18T15:33:22;965.02;;;23.75;74.25
71565;BME280;59397;50.952;14.502;2023-09-18T15:52:55;965.03;;;23.30;78.44
71565;BME280;59397;50.952;14.502;2023-09-18T16:12:27;965.04;;;23.00;75.52
71565;BME280;59397;50.952;14.502;2023-09-18T16:32:00;964.99;;;22.33;82.84
71565;BME280;59397;50.952;14.502;2023-09-18T16:51:32;964.95;;;21.70;89.79
71565;BME280;59397;50.952;14.502;2023-09-18T17:11:07;964.86;;;21.64;80.36
71565;BME280;59397;50.952;14.502;2023-09-18T17:30:40;964.76;;;21.20;77.20
71565;BME280;59397;50.952;14.502;2023-09-18T17:50:11;964.63;;;20.47;74.37
71565;BME280;59397;50.952;14.502;2023-09-18T18:09:43;965.29;;;19.55;83.41
71565;BME280;59397;50.952;14.502;2023-09-18T18:29:14;965.58;;;18.68;97.24
71565;BME280;59397;50.952;14.502;2023-09-18T18:48:49;965.92;;;18.69;100.00
71565;BME280;59397;50.952;14.502;2023-09-18T19:08:22;965.96;;;18.17;100.00
71565;BME280;59397;50.952;14.502;2023-09-18T19:27:56;965.76;;;17.92;100.00
71565;BME280;59397;50.952;14.502;2023-09-18T19:47:30;965.81;;;17.23;100.00
71565;BME280;59397;50.952;14.502;2023-09-18T20:07:04;965.65;;;17.38;100.00
71565;BME280;59397;50.952;14.502;2023-09-18T20:26:37;965.63;;;17.51;100.00
71565;BME280;59397;50.952;14.502;2023-09-18T20:46:12;965.65;;;17.12;100.00
71565;BME280;59397;50.952;14.502;2023-09-18T21:05:50;965.69;;;17.35;100.00
71565;BME280;59397;50.952;14.502;2023-09-18T21:25:20;965.75;;;16.63;100.00
71565;BME280;59397;50.952;14.502;2023-09-18T21:44:55;965.77;;;16.79;100.00
71565;BME280;59397;50.952;14.502;2023-09-18T22:04:29;965.69;;;16.54;100.00
71565;BME280;59397;50.952;14.502;2023-09-18T22:24:03;965.18;;;16.24;100.00
71565;BME280;59397;50.952;14.502;2023-09-18T23:03:08;965.36;;;15.32;100.00
71565;BME280;59397;50.952;14.502;2023-09-18T23:22:42;965.07;;;15.37;100.00
71565;BME280;59397;50.952;14.502;2023-09-18T23:42:16;965.33;;;15.49;100.00
